createdAt,value
2017-09-05T00:02:03.558Z,36.17
2017-09-05T01:03:32.808Z,36.25
2017-09-05T01:06:13.563Z,36.29
2017-09-05T01:08:53.929Z,36.24
2017-09-05T01:19:40.096Z,36.42
2017-09-05T01:22:07.673Z,36.62
2017-09-05T01:24:35.258Z,36.60
2017-09-05T01:27:12.905Z,36.57
2017-09-05T01:37:36.330Z,36.73
2017-09-05T01:40:24.769Z,36.83
2017-09-05T01:45:26.918Z,36.71
2017-09-05T01:47:54.515Z,36.70
2017-09-05T01:50:22.214Z,36.83
2017-09-05T01:52:49.831Z,36.83
2017-09-05T01:55:24.939Z,36.80
2017-09-05T01:57:52.610Z,37.01
2017-09-05T02:00:20.120Z,36.85
2017-09-05T02:02:47.710Z,36.74
2017-09-05T02:05:28.715Z,36.76
2017-09-05T02:53:21.932Z,37.19
2017-09-05T02:55:49.507Z,36.97
2017-09-05T02:58:24.530Z,37.06
2017-09-05T03:00:52.151Z,36.99
2017-09-05T03:03:19.718Z,36.98
2017-09-05T03:05:47.354Z,37.23
2017-09-05T03:08:14.914Z,36.91
2017-09-05T03:10:49.491Z,37.03
2017-09-05T03:13:17.059Z,36.96
2017-09-05T03:16:11.351Z,37.05
2017-09-05T03:21:21.274Z,37.09
2017-09-05T03:26:45.014Z,37.13
2017-09-05T03:29:19.650Z,37.06
2017-09-05T03:52:47.315Z,37.23
2017-09-05T03:55:14.902Z,37.12
2017-09-05T03:57:42.462Z,37.41
2017-09-05T04:00:31.602Z,37.35
2017-09-05T04:02:59.110Z,37.22
2017-09-05T04:05:26.703Z,36.96
2017-09-05T04:07:54.286Z,36.97
2017-09-05T04:10:21.809Z,37.08
2017-09-05T04:13:02.194Z,36.93
2017-09-05T04:15:29.755Z,36.98
2017-09-05T04:17:57.419Z,37.03
2017-09-05T04:20:24.940Z,37.00
2017-09-05T04:22:52.683Z,37.03
2017-09-05T04:25:35.546Z,37.00
2017-09-05T04:28:03.327Z,37.16
2017-09-05T04:30:30.923Z,37.24
2017-09-05T04:33:33.238Z,37.17
2017-09-05T04:36:13.659Z,37.40
2017-09-05T04:38:41.259Z,37.31
2017-09-05T04:41:15.812Z,37.25
2017-09-05T04:43:43.395Z,37.36
2017-09-05T04:46:14.187Z,37.31
2017-09-05T04:48:41.706Z,37.40
2017-09-05T04:51:09.262Z,37.40
2017-09-05T04:53:36.779Z,37.39
2017-09-05T04:56:30.907Z,37.40
2017-09-05T04:58:58.420Z,37.32
2017-09-05T05:01:26.010Z,37.01
2017-09-05T05:03:53.531Z,36.94
2017-09-05T05:06:21.141Z,36.87
2017-09-05T05:08:48.725Z,37.00
2017-09-05T05:11:16.259Z,36.98
2017-09-05T05:13:43.859Z,36.95
2017-09-05T05:16:11.427Z,37.22
2017-09-05T07:28:30.302Z,36.79
2017-09-05T07:30:57.978Z,37.10
2017-09-05T07:33:25.594Z,37.01
2017-09-05T07:38:27.382Z,37.10
2017-09-05T10:27:18.455Z,36.27
2017-09-05T14:28:14.715Z,30.53
2017-09-05T14:30:42.317Z,30.62
2017-09-05T14:46:03.500Z,30.49
2017-09-05T14:48:31.276Z,30.47
2017-09-05T16:34:19.919Z,32.74
2017-09-05T16:36:55.008Z,32.32
2017-09-05T16:39:39.296Z,32.31
2017-09-05T17:19:25.583Z,33.48
2017-09-05T17:24:34.861Z,33.55
2017-09-05T17:27:21.116Z,33.50
2017-09-05T17:32:46.507Z,33.53
2017-09-05T17:35:24.139Z,33.53
2017-09-05T17:48:29.396Z,33.26
2017-09-05T17:53:42.307Z,33.35
2017-09-05T18:01:56.506Z,33.43
2017-09-05T18:15:47.431Z,33.73
2017-09-05T18:34:21.560Z,33.81
2017-09-05T18:39:24.010Z,33.89
2017-09-05T18:44:29.879Z,34.13
2017-09-05T19:02:50.286Z,33.96
2017-09-05T19:08:06.645Z,34.13
2017-09-05T19:10:36.388Z,34.26
2017-09-05T19:20:47.147Z,34.56
2017-09-05T19:23:19.502Z,34.25
2017-09-05T19:25:48.524Z,34.14
2017-09-05T19:28:25.405Z,34.17
2017-09-05T19:30:53.614Z,34.07
2017-09-05T19:33:22.193Z,34.06
2017-09-05T19:41:23.366Z,34.06
2017-09-05T19:43:56.720Z,34.05
2017-09-05T19:51:57.438Z,34.14
2017-09-05T19:54:41.893Z,34.13
2017-09-05T19:59:57.388Z,34.22
2017-09-05T20:02:37.443Z,34.27
2017-09-05T20:10:23.052Z,34.33
2017-09-05T20:15:28.354Z,34.40
2017-09-05T20:23:19.631Z,34.44
2017-09-05T20:25:48.285Z,34.42
2017-09-05T20:28:23.597Z,34.51
2017-09-05T20:36:18.410Z,34.72
2017-09-05T20:38:46.105Z,34.46
2017-09-05T20:41:13.734Z,34.46
2017-09-05T20:43:41.289Z,34.64
2017-09-05T20:46:08.973Z,34.60
2017-09-05T20:48:37.483Z,34.62
2017-09-05T20:51:05.069Z,34.65
2017-09-05T20:53:32.654Z,34.61
2017-09-05T20:56:00.336Z,34.68
2017-09-05T20:58:27.876Z,34.67
2017-09-05T21:00:55.484Z,34.71
2017-09-05T21:03:23.058Z,34.72
2017-09-05T21:05:50.647Z,34.69
2017-09-05T21:08:18.258Z,34.73
2017-09-05T21:10:45.874Z,34.78
2017-09-05T21:13:13.512Z,34.79
2017-09-05T21:15:41.180Z,34.74
2017-09-05T21:18:08.763Z,34.78
2017-09-05T21:20:36.384Z,34.80
2017-09-05T21:23:04.003Z,34.82
2017-09-05T21:25:31.588Z,34.82
2017-09-05T21:27:59.144Z,34.82
2017-09-05T21:30:26.723Z,34.88
2017-09-05T21:32:54.285Z,34.84
2017-09-05T21:35:21.901Z,34.85
2017-09-05T21:37:50.376Z,34.91
2017-09-05T21:40:17.996Z,34.92
2017-09-05T21:42:45.588Z,35.03
2017-09-05T21:45:13.183Z,34.94
2017-09-05T21:47:40.785Z,34.99
2017-09-05T21:50:08.411Z,35.12
2017-09-05T21:52:36.055Z,35.01
2017-09-05T21:55:03.638Z,35.00
2017-09-05T21:57:31.187Z,35.01
2017-09-05T21:59:58.776Z,35.06
2017-09-05T22:02:26.396Z,35.02
2017-09-05T22:04:54.856Z,35.07
2017-09-05T22:07:22.432Z,34.99
2017-09-05T22:12:47.328Z,35.01
2017-09-05T22:15:25.785Z,35.12
2017-09-05T22:17:53.360Z,35.05
2017-09-05T22:20:21.027Z,35.09
2017-09-05T22:22:48.635Z,35.12
2017-09-05T22:25:16.188Z,35.18
2017-09-05T22:27:43.782Z,35.14
2017-09-05T22:30:11.375Z,35.19
2017-09-05T22:32:38.935Z,35.17
2017-09-05T22:35:06.539Z,35.21
2017-09-05T22:37:34.110Z,35.22
2017-09-05T22:40:01.744Z,35.21
2017-09-05T22:42:29.292Z,35.25
2017-09-05T22:44:56.910Z,35.23
2017-09-05T22:47:24.458Z,35.26
2017-09-05T22:49:52.027Z,35.27
2017-09-05T22:52:19.591Z,35.34
2017-09-05T22:54:47.146Z,35.32
2017-09-05T22:57:14.724Z,35.30
2017-09-05T22:59:42.339Z,35.27
2017-09-05T23:02:09.905Z,35.25
2017-09-05T23:04:38.193Z,35.35
2017-09-05T23:07:05.824Z,35.30
2017-09-05T23:09:33.369Z,35.29
2017-09-05T23:12:00.948Z,35.23
2017-09-05T23:14:28.582Z,35.31
2017-09-05T23:16:56.171Z,35.39
2017-09-05T23:19:23.795Z,35.28
2017-09-05T23:21:51.354Z,35.28
2017-09-05T23:24:18.930Z,35.35
2017-09-05T23:26:46.534Z,35.35
2017-09-05T23:29:14.085Z,35.32
2017-09-05T23:31:41.764Z,35.33
2017-09-05T23:34:10.111Z,35.36
2017-09-05T23:36:37.691Z,35.40
2017-09-05T23:39:05.253Z,35.34
2017-09-05T23:41:32.812Z,35.42
2017-09-05T23:44:00.437Z,35.35
2017-09-05T23:46:28.043Z,35.32
2017-09-05T23:48:55.881Z,35.35
2017-09-05T23:54:18.347Z,35.47
2017-09-05T23:56:46.953Z,35.49
2017-09-05T23:59:14.758Z,35.47
